メインページ
METAR-TAF:

METAR-TAF

空港 :

アンマン, ヨルダン

緯度: 31-59N, 経度: 035-59E, 海抜: 767m

現時点の気象観測

当レポートは39分前の01:00(UTC)に作成
西/南西の風 8kt
気温 9°C
湿度 87%
気圧 1016 hPa
視程: 6000m
高度2500ftの雲は散在している
高度3000ftの雲は散在している

METAR: OJAM 180100Z 25008KT 6000 SCT025 SCT030 09/07 Q1016 NOSIG

時間: 03:39 (01:39 UTC)

予報

当レポートは2時間47分前の22:52(UTC)に作成
予報は18日の 00時(UTC)から 19日の 06時(UTC)まで有効
西/南西の風 5kt
視程: 6000m
高度2500ftの雲は散在している
高度3000ftの雲は散在している
18日の 07時(UTC)から 18日の 09時(UTC)まで徐々に
南西の風 14kt
視程: 4000m
高度3000ftの雲は散在している
高度3500ftの千切れ雲あり
広範な塵
18日の 12時(UTC)から 18日の 16時(UTC)まで一時的に
西/南西の風 16kt、最大26ktの突風を伴う
視程: 3000m
風塵
18日の 16時(UTC)から 18日の 18時(UTC)まで徐々に
西の風 20kt、最大30ktの突風を伴う
視程: 3000m
高度2500ftの雲は散在している
高度3000ftの千切れ雲あり
18日の 19時(UTC)から 18日の 24時(UTC)まで一時的に
高度2000ftの雲は散在している, 積乱雲.
高度2500ftの千切れ雲あり
激しい雷雨, 雨

TAF: OJAM 172252Z 1800/1906 24005KT 6000 SCT025 SCT030 BECMG 1807/1809 23014KT 4000 DU SCT030 BKN035 TEMPO 1812/1816 25016G26KT 3000 BLDU BECMG 1816/1818 27020G30KT 3000 RA SCT025 BKN030 TEMPO 1819/1824 TSRA SCT020CB BKN025

4,000以上の空港の気象観測と天気予報(METAR報とTAF報)

利用可能な観測所は地図上に黄色い丸と赤い丸で示す。

丸の上にカーソルを重ねると観測所名を参照できる。

次にクリックすると気象観測と天気予報を参照できる。

マップの切り替え:黒色「×」印の緑ボタンをクリックして拡大、「-」印の緑ボタンをクリックして縮小、緑色の三角印をクリックして隣りの地図に切り替え


METAR-TAF: